Philippeville, Belgium
Current Conditions -  °F | °C
As of 2:55 PM on Wednesday 28 Jan 2015 (Local Time) from EBFS Reporting Station
Light Rain Light Rain  
Wind Chill: 28°   Ceiling: 700
Heat Index: 39°   Visibility: 2.5mi
Dew Point: 37°   Wind: 24mph
Humidity: 93%   Direction: 210°SSW
Pressure: 29.62"   Gusts: NA
Location:  50.2°N, 4.54°E
Report Text: EBFS 281355Z 21021KT 4000 -RA SCT005 BKN007 BKN009 04/03 Q1003 YLO YLO TEMPO GRN
Loading
Personal Weather Stations






























Interactive Weather Map New forecast layout! Learn more

10-Day Weather Forecast

Advertisements
Track Severe Weather on mobile